Detall de PIREP

Printer-friendly versionPDF version

[2008/10/12 14:09:00]
Flight IATA:CT3128
Pilot Number:011
Company ICAO:CAT
Aircraft Type:F28/A
PAX:85
Departing Airport: LEVC
Destination Airport: LEZG
Alternate Airport:LEMD
Online: VATSIM
Route:TATOS A34 MLA
Flight Level:FL180
No Slew and time accel
No pause
Crash detect
Detect pilot in Cockpit between each 30 and 45 minutes
14:09 Zero fuel Weight: 60036 Lbs, Fuel Weight: 7879 Lbs
14:09 VATSIM:LEVC 121330Z 07012KT 5000 BR SCT015 BKN030 23/23 Q1023 NOSIG
14:09 VATSIM:LEZG 121330Z 11010KT 3000 TSRA FEW005 SCT014 BKN030CB 18/18 Q1025
14:09 Parking Brakes off
14:14 Take-off
14:14 Take off Weight: 67521 Lbs
14:14 Wind: 063 @ 014 Knots Heading: 297
14:14 POS N39 29 25 W000 29 03
14:14 Gear Up: 162 Knots
14:14 Flaps:2 at 162 Knots
14:14 Flaps:1 at 223 Knots
14:15 Flaps:0 at 231 Knots
14:24 TOC
14:24 Fuel Weight: 6167 Lb
14:29 Wind:072@029 Knots Heading:
024 Ground Speed: 361 Knots Altitude 18001 ft
14:34 TOD
14:34 Fuel Weight: 5324 Lb
14:44 Wind:100@022 Knots Heading: 286 Ground Speed: 294 Knots Altitude 6345 ft
14:51 Flaps:1 at 215 Knots
14:52 Flaps:2 at 195 Knots
14:57 Flaps:3 at 159 Knots
14:57 Gear Down: 159 Knots
14:59 Wind:103@011 Knots Heading: 118 Ground Speed: 145 Knots Altitude 2650 ft
15:00 Flaps:4 at 150 Knots
15:00 Flaps:3 at 150 Knots
15:00 Flaps:2 at 150 Knots
15:00 Flaps:3 at 151 Knots
15:00 Flaps:4 at 150 Knots
15:00 Flaps:5 at 151 Knots
15:01 TouchDown:Rate -276 ft/min Speed: 105 Knots
15:01 Flaps:0 at 52 Knots
15:01 VATSIM:LEZG 121400Z 10011KT 4000 -TSRA BR FEW005 SCT014 SCT030CB 18/18 Q1024
15:01 Land
15:01 Wind:103@011 Knots
15:01 Heading: 122
15:01 Flight Duration: 00:47
15:01 Landing Weight: 63807 Lbs
15:01 POS N41 39 30 W001 00 54
15:06 Parking brakes on
15:06
Block to Block Duration: 00:57
15:06 Final Fuel: 3633 Lbls
15:06 Spent Fuel: 4246 Lbls
15:06 Flight Length: 44 NM
15:06 TOD Land Length: 16 NM

Exportar CSV

Powered by Drupal - Modified by Danger4k